Time;durP1;ratioP1;P1;durP2;ratioP2;P2;SDS_P1;SDS_P2;PMS_P1;PMS_P2;Temp;Humidity;BMP_temperature;BMP_pressure;BME280_temperature;BME280_humidity;BME280_pressure;Samples;Min_cycle;Max_cycle;Signal;HPM_P1;HPM_P2
2023/09/01 00:00:08;;;;;;;0.40;0.40;;;;;;;14.40;90.44;96701.56;29395;231;63004;-68
2023/09/01 00:00:41;;;;;;;0.40;0.40;;;;;;;14.38;90.83;96695.63;29395;257;63008;-66
2023/09/01 00:01:12;;;;;;;0.40;0.40;;;;;;;14.40;90.70;96698.84;29395;294;63005;-66
2023/09/01 00:01:43;;;;;;;0.40;0.40;;;;;;;14.38;91.16;96706.53;29395;204;63009;-65
2023/09/01 00:02:15;;;;;;;0.40;0.40;;;;;;;14.37;90.70;96699.47;29395;222;63005;-68
2023/09/01 00:02:47;;;;;;;0.40;0.40;;;;;;;14.41;91.54;96695.03;29395;213;63009;-67
2023/09/01 00:03:18;;;;;;;0.40;0.40;;;;;;;14.41;90.47;96697.75;29395;202;63005;-66
2023/09/01 00:03:53;;;;;;;0.40;0.40;;;;;;;14.40;90.15;96701.56;29394;197;64013;-68
2023/09/01 00:04:24;;;;;;;0.43;0.43;;;;;;;14.38;90.06;96701.09;29395;282;63012;-66
2023/09/01 00:04:56;;;;;;;0.40;0.40;;;;;;;14.37;90.02;96699.47;29395;243;63011;-67
2023/09/01 00:05:27;;;;;;;0.40;0.40;;;;;;;14.37;89.82;96704.94;29395;275;63004;-66
2023/09/01 00:06:02;;;;;;;0.40;0.40;;;;;;;14.36;90.38;96700.59;29395;206;63009;-68
2023/09/01 00:06:34;;;;;;;0.40;0.40;;;;;;;14.36;91.18;96704.12;29395;237;63004;-68
2023/09/01 00:07:05;;;;;;;0.40;0.40;;;;;;;14.38;90.82;96695.63;29395;202;63012;-67
2023/09/01 00:07:38;;;;;;;0.50;0.50;;;;;;;14.37;90.06;96699.47;29395;223;63004;-54
2023/09/01 00:08:09;;;;;;;0.40;0.40;;;;;;;14.36;89.89;96695.16;29395;206;63025;-67
2023/09/01 00:08:43;;;;;;;0.40;0.40;;;;;;;14.36;90.52;96695.16;29395;202;63005;-68
2023/09/01 00:09:14;;;;;;;0.40;0.40;;;;;;;14.38;90.70;96692.91;29394;203;64014;-66
2023/09/01 00:09:45;;;;;;;0.40;0.40;;;;;;;14.39;91.05;96686.31;29395;197;63005;-66
2023/09/01 00:10:17;;;;;;;0.40;0.40;;;;;;;14.38;90.91;96690.16;29395;224;63009;-66
2023/09/01 00:10:49;;;;;;;0.40;0.40;;;;;;;14.38;90.75;96701.09;29395;222;63005;-54
2023/09/01 00:11:20;;;;;;;0.40;0.40;;;;;;;14.38;90.54;96695.63;29395;251;63009;-67
2023/09/01 00:11:52;;;;;;;0.40;0.40;;;;;;;14.39;90.52;96692.59;29395;218;63005;-68
2023/09/01 00:12:23;;;;;;;0.40;0.40;;;;;;;14.39;90.82;96697.22;29395;220;63009;-68
2023/09/01 00:12:56;;;;;;;0.40;0.40;;;;;;;14.39;90.46;96697.22;29395;226;63004;-66
2023/09/01 00:13:28;;;;;;;0.40;0.40;;;;;;;14.39;90.70;96686.31;29395;255;63020;-66
2023/09/01 00:13:59;;;;;;;0.40;0.40;;;;;;;14.39;90.18;96691.78;29395;209;63004;-66
2023/09/01 00:14:31;;;;;;;0.40;0.40;;;;;;;14.41;90.39;96695.03;29394;234;64013;-66
2023/09/01 00:15:03;;;;;;;0.40;0.40;;;;;;;14.44;90.12;96688.91;29395;207;63004;-69
2023/09/01 00:15:35;;;;;;;0.50;0.50;;;;;;;14.46;89.56;96692.13;29395;208;63008;-66
2023/09/01 00:16:06;;;;;;;0.50;0.50;;;;;;;14.47;89.51;96693.72;29395;230;63005;-67
2023/09/01 00:16:37;;;;;;;0.40;0.40;;;;;;;14.47;89.66;96693.72;29395;291;63013;-66
2023/09/01 00:17:12;;;;;;;0.40;0.40;;;;;;;14.46;89.87;96696.78;29395;206;63005;-67
2023/09/01 00:17:43;;;;;;;0.40;0.40;;;;;;;14.45;89.91;96698.72;29395;207;63019;-66
2023/09/01 00:18:14;;;;;;;0.40;0.40;;;;;;;14.44;89.96;96691.66;29395;196;63005;-68
2023/09/01 00:18:46;;;;;;;0.40;0.40;;;;;;;14.43;89.45;96694.69;29395;338;63009;-69
2023/09/01 00:19:17;;;;;;;0.40;0.40;;;;;;;14.44;89.98;96694.38;29395;219;63005;-67
2023/09/01 00:19:48;;;;;;;0.40;0.40;;;;;;;14.43;89.73;96692.78;29394;206;64013;-54
2023/09/01 00:20:20;;;;;;;0.50;0.50;;;;;;;14.43;89.36;96687.31;29395;218;63004;-66
2023/09/01 00:20:56;;;;;;;0.40;0.40;;;;;;;14.43;89.35;96689.25;29395;197;63009;-67
2023/09/01 00:21:28;;;;;;;0.40;0.40;;;;;;;14.46;89.01;96689.41;29395;231;63011;-67
2023/09/01 00:22:00;;;;;;;0.40;0.40;;;;;;;14.46;88.71;96685.87;29395;196;63009;-67
2023/09/01 00:22:31;;;;;;;0.40;0.40;;;;;;;14.45;88.61;96690.53;29395;214;63011;-54
2023/09/01 00:23:06;;;;;;;0.40;0.40;;;;;;;14.45;88.72;96695.97;29394;224;64013;-67
2023/09/01 00:23:38;;;;;;;0.40;0.40;;;;;;;14.44;88.84;96694.38;29394;212;64009;-67
2023/09/01 00:24:12;;;;;;;0.40;0.40;;;;;;;14.44;89.24;96697.09;29395;282;63009;-67
2023/09/01 00:24:43;;;;;;;0.40;0.40;;;;;;;14.44;89.50;96693.56;29395;202;63005;-68
2023/09/01 00:25:15;;;;;;;0.40;0.40;;;;;;;14.45;89.56;96693.25;29395;202;63009;-68
2023/09/01 00:25:55;;;;;;;0.43;0.43;;;;;;;14.53;89.07;96697.09;29395;198;63006;-67
2023/09/01 00:26:27;;;;;;;0.40;0.40;;;;;;;14.55;88.85;96698.41;29395;197;63009;-54
2023/09/01 00:27:02;;;;;;;0.40;0.40;;;;;;;14.59;88.83;96690.34;29395;206;63005;-69
2023/09/01 00:27:33;;;;;;;0.40;0.40;;;;;;;14.62;87.34;96692.41;29395;218;63005;-67
2023/09/01 00:28:05;;;;;;;0.40;0.40;;;;;;;14.61;87.02;96697.06;29395;218;63004;-67
2023/09/01 00:28:36;;;;;;;0.40;0.40;;;;;;;14.59;86.93;96691.13;29394;227;64004;-68
2023/09/01 00:29:08;;;;;;;0.40;0.40;;;;;;;14.60;87.94;96692.75;29395;236;63004;-54
2023/09/01 00:29:39;;;;;;;0.40;0.40;;;;;;;14.58;88.07;96695.00;29395;233;63009;-67
2023/09/01 00:30:12;;;;;;;0.40;0.40;;;;;;;14.58;88.48;96688.72;29395;217;63004;-66
2023/09/01 00:30:58;;;;;;;0.40;0.40;;;;;;;14.55;88.13;96695.66;29394;239;64013;-53
2023/09/01 00:31:29;;;;;;;0.40;0.40;;;;;;;14.52;88.26;96695.50;29395;216;63010;-67
2023/09/01 00:32:01;;;;;;;0.40;0.40;;;;;;;14.51;88.35;96697.44;29395;229;63014;-68
2023/09/01 00:32:33;;;;;;;0.35;0.35;;;;;;;14.50;88.56;96698.56;29395;203;63005;-68
2023/09/01 00:33:05;;;;;;;0.40;0.40;;;;;;;14.49;88.55;96696.94;29394;240;64013;-66
2023/09/01 00:33:37;;;;;;;0.40;0.40;;;;;;;14.48;88.93;96694.53;29395;197;63005;-66
2023/09/01 00:34:08;;;;;;;0.40;0.40;;;;;;;14.48;89.34;96695.34;29395;239;63009;-66
2023/09/01 00:34:41;;;;;;;0.40;0.40;;;;;;;14.49;90.04;96702.41;29395;243;63005;-68
2023/09/01 00:35:14;;;;;;;0.40;0.40;;;;;;;14.50;90.29;96700.47;29395;203;63022;-66
2023/09/01 00:35:46;;;;;;;0.40;0.40;;;;;;;14.50;89.60;96695.81;29395;210;63004;-68
2023/09/01 00:36:17;;;;;;;0.40;0.40;;;;;;;14.52;88.56;96699.03;29395;222;63027;-68
2023/09/01 00:36:50;;;;;;;0.40;0.40;;;;;;;14.53;89.22;96697.91;29395;223;63004;-67
2023/09/01 00:37:22;;;;;;;0.40;0.40;;;;;;;14.55;89.47;96701.13;29394;222;64013;-67
2023/09/01 00:37:53;;;;;;;0.40;0.40;;;;;;;14.57;89.41;96698.84;29395;231;63004;-68
2023/09/01 00:38:24;;;;;;;0.40;0.40;;;;;;;14.56;88.86;96702.69;29395;220;63008;-66
2023/09/01 00:38:56;;;;;;;0.40;0.40;;;;;;;14.54;88.92;96696.78;29395;227;63005;-68
2023/09/01 00:39:27;;;;;;;0.40;0.40;;;;;;;14.53;88.80;96697.91;29395;233;63009;-68
2023/09/01 00:39:58;;;;;;;0.40;0.40;;;;;;;14.59;88.52;96691.13;29394;260;64009;-67
2023/09/01 00:40:29;;;;;;;0.40;0.40;;;;;;;14.62;88.46;96695.16;29395;225;63009;-67
2023/09/01 00:41:02;;;;;;;0.40;0.40;;;;;;;14.63;88.12;96689.38;29395;223;63005;-66
2023/09/01 00:41:33;;;;;;;0.40;0.40;;;;;;;14.63;87.73;96688.56;29395;197;63009;-54
2023/09/01 00:42:06;;;;;;;0.40;0.40;;;;;;;14.61;87.87;96686.16;29395;222;63005;-66
2023/09/01 00:42:37;;;;;;;0.40;0.40;;;;;;;14.60;88.78;96691.94;29395;220;63016;-65
2023/09/01 00:43:09;;;;;;;0.40;0.40;;;;;;;14.60;89.31;96692.75;29395;231;63004;-68
2023/09/01 00:43:40;;;;;;;0.40;0.40;;;;;;;14.60;89.47;96686.47;29395;253;63009;-66
2023/09/01 00:44:16;;;;;;;0.40;0.40;;;;;;;14.59;89.88;96684.87;29395;204;63004;-69
2023/09/01 00:44:48;;;;;;;0.40;0.40;;;;;;;14.56;89.05;96691.78;29395;202;63009;-67
2023/09/01 00:45:19;;;;;;;0.40;0.40;;;;;;;14.54;89.11;96683.13;29394;261;64009;-66
2023/09/01 00:45:51;;;;;;;0.40;0.40;;;;;;;14.57;89.69;96687.91;29395;215;63008;-69
2023/09/01 00:46:24;;;;;;;0.40;0.40;;;;;;;14.60;89.13;96687.28;29394;214;64009;-70
2023/09/01 00:46:56;;;;;;;0.40;0.40;;;;;;;14.61;88.53;96683.41;29395;218;63009;-67
2023/09/01 00:47:28;;;;;;;0.40;0.40;;;;;;;14.60;88.85;96684.53;29395;229;63005;-67
2023/09/01 00:47:59;;;;;;;0.40;0.40;;;;;;;14.62;88.69;96685.03;29395;244;63026;-69
2023/09/01 00:48:31;;;;;;;0.40;0.40;;;;;;;14.60;88.79;96681.81;29395;219;63011;-65
2023/09/01 00:49:03;;;;;;;0.40;0.40;;;;;;;14.58;87.64;96678.59;29395;240;63009;-69
2023/09/01 00:49:38;;;;;;;0.40;0.40;;;;;;;14.56;87.26;96686.31;29395;230;63004;-67
2023/09/01 00:50:12;;;;;;;0.40;0.40;;;;;;;14.56;88.00;96680.06;29395;212;63009;-66
2023/09/01 00:50:47;;;;;;;0.40;0.40;;;;;;;14.56;88.77;96680.84;29395;262;63004;-66
2023/09/01 00:51:18;;;;;;;0.40;0.40;;;;;;;14.60;89.05;96687.28;29395;236;63009;-68
2023/09/01 00:51:50;;;;;;;0.40;0.40;;;;;;;14.60;87.99;96692.75;29394;258;64009;-67
2023/09/01 00:52:21;;;;;;;0.40;0.40;;;;;;;14.57;87.29;96676.19;29395;226;63008;-54
2023/09/01 00:52:55;;;;;;;0.43;0.43;;;;;;;14.57;88.01;96687.91;29394;211;64008;-67
2023/09/01 00:53:26;;;;;;;0.40;0.40;;;;;;;14.58;89.19;96684.06;29395;280;63008;-67
2023/09/01 00:53:58;;;;;;;0.40;0.40;;;;;;;14.57;89.22;96687.91;29395;215;63005;-54
2023/09/01 00:54:31;;;;;;;0.40;0.40;;;;;;;14.56;89.15;96680.84;29395;235;63009;-54
2023/09/01 00:55:03;;;;;;;0.40;0.40;;;;;;;14.57;89.24;96677.00;29395;226;63005;-53
2023/09/01 00:55:36;;;;;;;0.40;0.40;;;;;;;14.56;88.48;96686.31;29395;209;63009;-53
2023/09/01 00:56:09;;;;;;;0.40;0.40;;;;;;;14.56;88.23;96682.78;29395;207;63017;-56
2023/09/01 00:56:41;;;;;;;0.40;0.40;;;;;;;14.56;88.90;96674.59;29395;237;63009;-66
2023/09/01 00:57:16;;;;;;;0.40;0.40;;;;;;;14.55;88.61;96683.94;29395;211;63004;-66
2023/09/01 00:57:47;;;;;;;0.40;0.40;;;;;;;14.55;88.32;96687.47;29395;203;63009;-53
2023/09/01 00:58:19;;;;;;;0.40;0.40;;;;;;;14.54;87.88;96683.13;29394;252;64009;-67
2023/09/01 00:58:50;;;;;;;0.40;0.40;;;;;;;14.54;88.16;96680.41;29395;285;63009;-54
2023/09/01 00:59:24;;;;;;;0.40;0.40;;;;;;;14.55;88.60;96682.00;29395;199;63004;-67
2023/09/01 00:59:55;;;;;;;0.40;0.40;;;;;;;14.60;88.59;96681.81;29395;205;63008;-67
2023/09/01 01:00:27;;;;;;;0.40;0.40;;;;;;;14.62;88.23;96679.56;29395;291;63004;-66
2023/09/01 01:00:59;;;;;;;0.40;0.40;;;;;;;14.63;88.57;96680.38;29395;246;63009;-54
2023/09/01 01:01:31;;;;;;;0.40;0.40;;;;;;;14.62;88.56;96679.56;29395;222;63005;-66
2023/09/01 01:02:04;;;;;;;0.40;0.40;;;;;;;14.58;88.39;96678.59;29395;233;63009;-65
2023/09/01 01:02:35;;;;;;;0.40;0.40;;;;;;;14.56;88.54;96680.84;29395;257;63014;-65
2023/09/01 01:03:09;;;;;;;0.40;0.40;;;;;;;14.57;88.79;96681.66;29395;234;63005;-67
2023/09/01 01:03:41;;;;;;;0.40;0.40;;;;;;;14.62;87.40;96682.28;29394;198;64009;-68
2023/09/01 01:04:17;;;;;;;2.25;2.15;;;;;;;14.63;87.34;96683.91;29395;281;63005;-67
2023/09/01 01:04:49;;;;;;;0.40;0.40;;;;;;;14.61;86.99;96677.97;29395;198;63004;-66
2023/09/01 01:05:51;;;;;;;0.40;0.40;;;;;;;14.62;88.11;96682.28;29395;242;63009;-67
2023/09/01 01:06:48;;;;;;;0.45;0.45;;;;;;;14.66;87.74;96679.72;29417;202;63004;-68
2023/09/01 01:07:40;;;;;;;0.40;0.40;;;;;;;14.63;86.91;96686.63;29395;222;63008;-66
2023/09/01 01:08:56;;;;;;;0.50;0.50;;;;;;;14.58;87.60;96684.06;29417;221;63005;-67
2023/09/01 01:09:57;;;;;;;0.40;0.40;;;;;;;14.60;87.81;96686.47;29394;363;64014;-66
2023/09/01 01:10:39;;;;;;;0.40;0.40;;;;;;;14.57;87.77;96687.91;29395;222;63005;-65
2023/09/01 01:11:38;;;;;;;0.40;0.40;;;;;;;14.57;88.56;96690.66;29395;202;63014;-68
2023/09/01 01:12:50;;;;;;;0.40;0.40;;;;;;;14.60;87.34;96689.22;29395;205;63005;-67
2023/09/01 01:13:27;;;;;;;0.40;0.40;;;;;;;14.57;88.42;96687.91;29395;226;63009;-66
2023/09/01 01:14:04;;;;;;;0.43;0.43;;;;;;;14.55;87.93;96684.75;29395;202;63004;-66
2023/09/01 01:14:42;;;;;;;0.40;0.40;;;;;;;14.53;87.91;96686.19;29394;196;64013;-66
2023/09/01 01:15:14;;;;;;;0.50;0.50;;;;;;;14.50;88.59;96682.19;29395;208;63004;-66
2023/09/01 01:15:47;;;;;;;0.40;0.40;;;;;;;14.50;88.74;96686.84;29395;211;63005;-67
2023/09/01 01:16:20;;;;;;;0.50;0.50;;;;;;;14.50;89.32;96682.19;29395;289;63015;-69
2023/09/01 01:16:53;;;;;;;0.40;0.40;;;;;;;14.52;89.20;96679.94;29395;221;63009;-67
2023/09/01 01:17:25;;;;;;;0.40;0.40;;;;;;;14.52;89.34;96679.94;29395;214;63005;-67
2023/09/01 01:17:57;;;;;;;0.40;0.40;;;;;;;14.50;89.46;96687.63;29395;270;63009;-68
2023/09/01 01:18:34;;;;;;;0.40;0.40;;;;;;;14.50;89.76;96682.19;29395;248;63013;-66
2023/09/01 01:19:50;;;;;;;0.40;0.40;;;;;;;14.48;89.49;96678.97;29395;214;63009;-66
2023/09/01 01:20:39;;;;;;;0.50;0.50;;;;;;;14.48;89.81;96678.16;29394;209;64009;-67
2023/09/01 01:21:23;;;;;;;0.40;0.40;;;;;;;14.47;90.15;96682.81;29395;221;63009;-67
2023/09/01 01:21:59;;;;;;;0.50;0.50;;;;;;;14.48;90.47;96681.69;29395;199;63004;-66
2023/09/01 01:22:45;;;;;;;0.40;0.40;;;;;;;14.48;90.22;96684.41;29395;222;63008;-65
2023/09/01 01:23:22;;;;;;;0.43;0.43;;;;;;;14.45;89.95;96679.59;29395;278;63010;-67
2023/09/01 01:23:53;;;;;;;0.40;0.40;;;;;;;14.43;90.36;96679.13;29395;239;63009;-67
2023/09/01 01:24:26;;;;;;;0.40;0.40;;;;;;;14.41;90.51;96682.19;29395;275;63005;-66
2023/09/01 01:24:58;;;;;;;0.40;0.40;;;;;;;14.41;91.15;96692.28;29395;212;63009;-65
2023/09/01 01:25:29;;;;;;;0.40;0.40;;;;;;;14.41;91.63;96681.38;29394;235;64009;-65
2023/09/01 01:26:00;;;;;;;0.45;0.45;;;;;;;14.41;92.27;96684.09;29395;236;63009;-65
2023/09/01 01:26:32;;;;;;;0.40;0.40;;;;;;;14.40;92.33;96687.94;29395;236;63005;-65
2023/09/01 01:27:04;;;;;;;0.40;0.40;;;;;;;14.39;93.17;96675.41;29395;219;63009;-52
2023/09/01 01:27:36;;;;;;;0.40;0.40;;;;;;;14.37;93.50;96685.84;29395;204;63004;-65
2023/09/01 01:28:08;;;;;;;0.40;0.40;;;;;;;14.35;96.22;96680.69;29395;204;63009;-65
2023/09/01 01:28:40;;;;;;;0.40;0.40;;;;;;;14.32;95.06;96680.53;29394;217;64009;-61
2023/09/01 01:29:11;;;;;;;0.40;0.40;;;;;;;14.36;95.56;96674.12;29395;212;63009;-65
2023/09/01 01:29:42;;;;;;;0.40;0.40;;;;;;;14.35;94.58;96690.81;29395;203;63004;-65
2023/09/01 01:30:14;;;;;;;0.40;0.40;;;;;;;14.31;96.57;96679.72;29395;283;63008;-65
2023/09/01 01:30:47;;;;;;;0.40;0.40;;;;;;;14.28;97.16;96687.75;29395;284;63009;-52
2023/09/01 01:31:22;;;;;;;0.40;0.40;;;;;;;14.24;96.90;96679.41;29395;222;63009;-64
2023/09/01 01:31:57;;;;;;;0.40;0.40;;;;;;;14.21;96.09;96676.50;29395;198;63005;-66
2023/09/01 01:32:29;;;;;;;0.40;0.40;;;;;;;14.21;96.66;96690.16;29395;289;63009;-64
2023/09/01 01:33:01;;;;;;;0.40;0.40;;;;;;;14.19;96.73;96685.06;29395;227;63005;-65
2023/09/01 01:34:23;;;;;;;0.40;0.40;;;;;;;14.17;97.09;96683.75;29395;236;63013;-66
2023/09/01 01:35:09;;;;;;;0.40;0.40;;;;;;;14.15;97.24;96680.56;29394;197;64009;-65
2023/09/01 01:35:53;;;;;;;0.40;0.40;;;;;;;14.12;97.57;96682.00;29395;376;63009;-65
2023/09/01 01:36:43;;;;;;;0.40;0.40;;;;;;;14.12;97.22;96681.19;29395;197;63009;-64
2023/09/01 01:37:48;;;;;;;0.50;0.50;;;;;;;14.12;98.27;96681.19;29416;380;64013;-63
2023/09/01 01:38:27;;;;;;;0.50;0.50;;;;;;;14.16;98.03;96680.22;29395;205;63005;-66
2023/09/01 01:39:06;;;;;;;0.50;0.50;;;;;;;14.16;97.87;96682.16;29395;219;63009;-64
2023/09/01 01:39:39;;;;;;;0.50;0.50;;;;;;;14.16;97.84;96679.44;29394;300;64009;-62
2023/09/01 01:40:12;;;;;;;0.40;0.40;;;;;;;14.15;97.79;96681.34;29395;236;63009;-65
2023/09/01 01:40:49;;;;;;;0.40;0.40;;;;;;;14.14;98.38;96684.41;29395;214;63005;-64
2023/09/01 01:41:54;;;;;;;0.50;0.50;;;;;;;14.14;98.11;96678.94;29395;222;63009;-64
2023/09/01 01:42:29;;;;;;;0.40;0.40;;;;;;;14.15;98.83;96680.56;29394;232;64009;-53
2023/09/01 01:44:10;;;;;;;0.49;0.49;;;;;;;14.19;98.85;96681.53;88181;222;64004;-90
2023/09/01 01:44:48;;;;;;;0.50;0.50;;;;;;;14.23;98.72;96688.72;29394;225;64009;-90
2023/09/01 01:45:22;;;;;;;0.50;0.50;;;;;;;14.31;98.31;96684.38;29395;387;63005;-89
2023/09/01 01:45:56;;;;;;;0.50;0.50;;;;;;;14.34;97.37;96689.22;29395;350;63009;-90
2023/09/01 01:46:28;;;;;;;0.40;0.40;;;;;;;14.33;97.24;96688.41;29394;228;64009;-91
2023/09/01 01:47:02;;;;;;;0.50;0.50;;;;;;;14.36;97.10;96676.03;29395;245;63009;-89
2023/09/01 01:47:34;;;;;;;0.50;0.50;;;;;;;14.40;97.11;96687.94;29395;226;63004;-89
2023/09/01 01:48:07;;;;;;;0.50;0.50;;;;;;;14.46;96.97;96686.66;29395;198;63009;-88
2023/09/01 01:48:40;;;;;;;0.60;0.60;;;;;;;14.53;95.96;96689.72;29395;207;63004;-87
2023/09/01 01:49:11;;;;;;;0.47;0.47;;;;;;;14.55;94.99;96679.28;29395;198;63008;-91
2023/09/01 01:49:42;;;;;;;0.47;0.47;;;;;;;14.55;95.03;96683.94;29395;230;63005;-90
2023/09/01 01:50:14;;;;;;;0.40;0.40;;;;;;;14.55;95.48;96695.66;29395;203;63009;-90
2023/09/01 01:50:45;;;;;;;0.40;0.40;;;;;;;14.53;95.49;96689.72;29395;206;63005;-87
2023/09/01 01:51:17;;;;;;;0.40;0.40;;;;;;;14.56;94.69;96686.31;29394;197;64013;-91
2023/09/01 01:51:48;;;;;;;0.40;0.40;;;;;;;14.55;94.88;96683.94;29395;199;63005;-90
2023/09/01 01:52:19;;;;;;;0.40;0.40;;;;;;;14.54;95.21;96682.34;29395;223;63009;-91
2023/09/01 01:52:51;;;;;;;0.50;0.50;;;;;;;14.52;95.78;96690.03;29395;216;63005;-90
2023/09/01 01:53:22;;;;;;;0.40;0.40;;;;;;;14.52;96.57;96685.37;29395;294;63009;-91
2023/09/01 01:53:54;;;;;;;0.40;0.40;;;;;;;14.52;96.85;96690.84;29395;312;63004;-89
2023/09/01 01:54:25;;;;;;;0.40;0.40;;;;;;;14.51;97.01;96694.69;29395;212;63009;-91
2023/09/01 01:54:56;;;;;;;0.45;0.45;;;;;;;14.52;97.66;96679.13;29395;214;63004;-91
2023/09/01 01:55:28;;;;;;;0.40;0.40;;;;;;;14.50;97.38;96682.19;29395;202;63009;-89
2023/09/01 01:56:03;;;;;;;0.40;0.40;;;;;;;14.49;97.74;96691.50;29395;284;63015;-90
2023/09/01 01:56:35;;;;;;;0.40;0.40;;;;;;;14.47;97.62;96682.00;29394;226;64013;-92
2023/09/01 01:57:10;;;;;;;0.40;0.40;;;;;;;14.48;97.94;96683.63;29395;228;63005;-91
2023/09/01 01:57:44;;;;;;;0.43;0.43;;;;;;;14.48;97.72;96680.88;29395;247;63009;-90
2023/09/01 01:58:15;;;;;;;0.40;0.40;;;;;;;14.47;97.40;96682.81;29395;222;63005;-91
2023/09/01 01:58:46;;;;;;;0.40;0.40;;;;;;;14.52;97.05;96690.84;29395;239;63009;-89
2023/09/01 01:59:18;;;;;;;0.40;0.40;;;;;;;14.55;96.95;96684.75;29395;238;63005;-89
2023/09/01 01:59:49;;;;;;;0.40;0.40;;;;;;;14.54;96.95;96685.87;29394;219;64013;-89
2023/09/01 02:00:20;;;;;;;0.40;0.40;;;;;;;14.55;96.94;96687.47;29395;300;63005;-89
2023/09/01 02:00:53;;;;;;;0.40;0.40;;;;;;;14.54;96.74;96688.59;29395;208;63009;-90
2023/09/01 02:01:25;;;;;;;0.40;0.40;;;;;;;14.54;96.87;96683.13;29394;197;64004;-90
2023/09/01 02:01:58;;;;;;;0.40;0.40;;;;;;;14.56;97.26;96685.50;29395;218;63009;-89
2023/09/01 02:02:30;;;;;;;0.40;0.40;;;;;;;14.60;96.48;96690.00;29395;216;63004;-92
2023/09/01 02:03:04;;;;;;;0.40;0.40;;;;;;;14.59;96.44;96693.87;29395;235;63009;-91
2023/09/01 02:03:36;;;;;;;0.40;0.40;;;;;;;14.57;96.59;96687.91;29395;232;63004;-91
2023/09/01 02:04:07;;;;;;;0.40;0.40;;;;;;;14.57;96.93;96682.47;29395;219;63008;-91
2023/09/01 02:04:38;;;;;;;0.40;0.40;;;;;;;14.56;97.31;96675.41;29395;274;63005;-91
2023/09/01 02:05:10;;;;;;;0.40;0.40;;;;;;;14.56;96.98;96690.97;29394;215;64014;-91
2023/09/01 02:05:42;;;;;;;0.50;0.50;;;;;;;14.54;97.17;96677.69;29394;234;64005;-91
2023/09/01 02:06:13;;;;;;;0.40;0.40;;;;;;;14.54;97.62;96680.41;29395;236;63014;-91
2023/09/01 02:06:45;;;;;;;0.40;0.40;;;;;;;14.55;97.80;96678.47;29395;222;63005;-92
2023/09/01 02:07:17;;;;;;;0.47;0.47;;;;;;;14.56;97.37;96671.88;29395;246;63009;-92
2023/09/01 02:07:48;;;;;;;0.50;0.50;;;;;;;14.57;97.15;96681.66;29395;214;63005;-90
2023/09/01 02:08:19;;;;;;;0.50;0.50;;;;;;;14.56;97.03;96682.78;29395;275;63009;-91
2023/09/01 02:08:50;;;;;;;0.50;0.50;;;;;;;14.59;97.67;96680.22;29394;266;64009;-91
2023/09/01 02:09:22;;;;;;;0.40;0.40;;;;;;;14.63;97.22;96685.84;29394;235;64013;-90
2023/09/01 02:09:53;;;;;;;0.40;0.40;;;;;;;14.63;97.01;96686.63;29395;226;63004;-89
2023/09/01 02:10:24;;;;;;;0.40;0.40;;;;;;;14.63;96.46;96685.84;29395;231;63009;-93
2023/09/01 02:10:56;;;;;;;0.40;0.40;;;;;;;14.66;96.77;96686.00;29395;244;63004;-90
2023/09/01 02:11:27;;;;;;;0.40;0.40;;;;;;;14.66;96.59;96688.72;29395;215;63008;-92
2023/09/01 02:11:59;;;;;;;0.40;0.40;;;;;;;14.64;96.68;96688.25;29395;310;63005;-90
2023/09/01 02:12:31;;;;;;;0.40;0.40;;;;;;;14.64;97.08;96692.91;29395;276;63009;-92
2023/09/01 02:13:04;;;;;;;0.40;0.40;;;;;;;14.62;97.18;96685.03;29395;241;63005;-92
2023/09/01 02:13:35;;;;;;;0.40;0.40;;;;;;;14.62;97.44;96698.69;29394;225;64014;-91
2023/09/01 02:14:07;;;;;;;0.40;0.40;;;;;;;14.62;97.23;96693.22;29394;210;64009;-91
2023/09/01 02:14:38;;;;;;;0.40;0.40;;;;;;;14.63;96.92;96686.63;29395;230;63009;-92
2023/09/01 02:15:10;;;;;;;0.40;0.40;;;;;;;14.63;96.71;96686.63;29394;240;64009;-94
2023/09/01 02:15:54;;;;;;;0.40;0.40;;;;;;;14.62;96.45;96693.22;29395;236;63009;-91
2023/09/01 02:16:25;;;;;;;0.40;0.40;;;;;;;14.65;97.35;96694.50;29395;260;63016;-92
2023/09/01 02:16:59;;;;;;;0.40;0.40;;;;;;;14.69;96.70;96690.81;29394;231;64009;-92
2023/09/01 02:17:30;;;;;;;0.40;0.40;;;;;;;14.73;96.64;96701.88;29395;224;63004;-92
2023/09/01 02:18:03;;;;;;;0.40;0.40;;;;;;;14.71;96.58;96688.56;29395;212;63009;-93
2023/09/01 02:18:36;;;;;;;0.40;0.40;;;;;;;14.74;96.45;96695.31;29395;245;63004;-91
2023/09/01 02:19:09;;;;;;;0.40;0.40;;;;;;;14.75;96.29;96692.25;29395;228;63008;-91
2023/09/01 02:19:41;;;;;;;0.40;0.40;;;;;;;14.74;96.47;96698.84;29394;228;64009;-90
2023/09/01 02:20:18;;;;;;;0.40;0.40;;;;;;;14.73;96.56;96697.22;29395;215;63009;-91
2023/09/01 02:20:51;;;;;;;0.40;0.40;;;;;;;14.80;95.90;96695.94;29395;229;63005;-91
2023/09/01 02:21:25;;;;;;;0.40;0.40;;;;;;;14.80;95.76;96695.94;29395;208;63009;-89
2023/09/01 02:21:57;;;;;;;0.40;0.40;;;;;;;14.78;95.77;96698.19;29395;218;63005;-91
2023/09/01 02:22:28;;;;;;;0.40;0.40;;;;;;;14.76;96.08;96701.25;29395;217;63009;-92
2023/09/01 02:22:59;;;;;;;0.40;0.40;;;;;;;14.75;96.27;96700.44;29395;198;63004;-89
2023/09/01 02:23:31;;;;;;;0.40;0.40;;;;;;;14.73;96.49;96691.78;29395;220;63009;-93
2023/09/01 02:24:05;;;;;;;0.40;0.40;;;;;;;14.72;96.34;96701.09;29394;221;64009;-93
2023/09/01 02:24:38;;;;;;;0.40;0.40;;;;;;;14.71;96.49;96699.47;29395;234;63009;-91
2023/09/01 02:25:13;;;;;;;0.40;0.40;;;;;;;14.71;96.84;96695.94;29395;220;63004;-91
2023/09/01 02:25:47;;;;;;;0.40;0.40;;;;;;;14.71;97.32;96698.69;29395;228;63008;-91
2023/09/01 02:26:23;;;;;;;0.40;0.40;;;;;;;14.69;97.22;96701.72;29395;224;63004;-90
2023/09/01 02:26:56;;;;;;;0.50;0.50;;;;;;;14.79;97.04;96699.78;29395;228;63008;-90
2023/09/01 02:27:28;;;;;;;0.40;0.40;;;;;;;14.79;96.74;96699.78;29395;206;63005;-91
2023/09/01 02:27:59;;;;;;;0.40;0.40;;;;;;;14.79;96.98;96699.78;29395;244;63009;-91
2023/09/01 02:28:30;;;;;;;0.40;0.40;;;;;;;14.78;97.15;96700.91;29395;199;63005;-91
2023/09/01 02:29:05;;;;;;;0.40;0.40;;;;;;;14.75;97.27;96703.19;29395;271;63009;-93
2023/09/01 02:29:37;;;;;;;0.40;0.40;;;;;;;14.77;97.70;96712.97;29394;209;64009;-90
2023/09/01 02:30:10;;;;;;;0.40;0.40;;;;;;;14.78;97.15;96703.66;29394;224;64013;-92
2023/09/01 02:30:42;;;;;;;0.43;0.43;;;;;;;14.75;96.87;96705.91;29395;198;63004;-91
2023/09/01 02:31:16;;;;;;;0.40;0.40;;;;;;;14.74;97.21;96703.50;29395;197;63009;-91
2023/09/01 02:31:48;;;;;;;0.40;0.40;;;;;;;14.73;97.16;96702.69;29395;233;63004;-90
2023/09/01 02:32:20;;;;;;;0.40;0.40;;;;;;;14.72;97.68;96712.00;29395;221;63009;-90
2023/09/01 02:32:54;;;;;;;0.40;0.40;;;;;;;14.72;97.70;96703.81;29395;203;63004;-92
2023/09/01 02:33:31;;;;;;;0.40;0.40;;;;;;;14.74;97.81;96709.75;29395;232;63008;-91
2023/09/01 02:34:05;;;;;;;0.40;0.40;;;;;;;14.73;97.46;96702.69;29395;205;63005;-92
2023/09/01 02:34:36;;;;;;;0.40;0.40;;;;;;;14.72;97.73;96701.09;29395;219;63009;-92
2023/09/01 02:35:09;;;;;;;0.40;0.40;;;;;;;14.69;97.67;96704.47;29394;212;64009;-93
2023/09/01 02:35:44;;;;;;;0.40;0.40;;;;;;;14.64;98.09;96693.69;29395;197;63009;-91
2023/09/01 02:36:33;;;;;;;0.40;0.40;;;;;;;14.67;98.30;96703.97;29395;230;63005;-87
2023/09/01 02:37:05;;;;;;;0.40;0.40;;;;;;;14.65;98.52;96706.22;29394;197;64013;-92
2023/09/01 02:37:37;;;;;;;0.40;0.40;;;;;;;14.66;98.71;96707.03;29395;198;63005;-92
2023/09/01 02:38:14;;;;;;;0.40;0.40;;;;;;;14.64;99.01;96710.09;29395;210;63009;-91
2023/09/01 02:38:45;;;;;;;0.40;0.40;;;;;;;14.66;99.25;96707.03;29395;259;63004;-90
2023/09/01 02:39:17;;;;;;;0.40;0.40;;;;;;;14.68;99.08;96707.50;29395;220;63009;-90
2023/09/01 02:39:48;;;;;;;0.40;0.40;;;;;;;14.77;98.66;96708.31;29395;241;63004;-92
2023/09/01 02:40:23;;;;;;;0.40;0.40;;;;;;;14.79;97.72;96708.00;29395;202;63009;-91
2023/09/01 02:40:55;;;;;;;0.40;0.40;;;;;;;14.78;97.66;96709.13;29395;202;63004;-91
2023/09/01 02:41:28;;;;;;;0.40;0.40;;;;;;;14.74;97.66;96707.03;29395;291;63017;-92
2023/09/01 02:42:01;;;;;;;0.40;0.40;;;;;;;14.71;97.74;96710.41;29395;203;63005;-90
2023/09/01 02:42:32;;;;;;;0.40;0.40;;;;;;;14.70;97.81;96708.78;29394;224;64014;-92
2023/09/01 02:43:03;;;;;;;0.47;0.47;;;;;;;14.71;98.70;96704.94;29395;231;63005;-91
2023/09/01 02:43:44;;;;;;;0.40;0.40;;;;;;;14.70;99.25;96708.78;29395;266;63009;-91
2023/09/01 02:44:15;;;;;;;0.47;0.47;;;;;;;14.73;98.50;96702.69;29417;208;63005;-92